Terminal Aerodrome Forecast
Issued by NWS Sioux Falls, SD

Home | Current Version | Previous Version | Text Only | Print | Product List | Glossary Off
Versions: 1 2 3 4 5 6 7 8 9 10 11 12 13 14 15 16 17 18 19 20 21 22 23 24 25

457
FTUS43 KFSD 231629 AAD
TAFFSD
TAF AMD
KFSD 231629Z 2316/2412 11005KT P6SM SCT012 OVC020
     FM232000 08006KT P6SM VCTS BKN025CB
     FM240100 07007KT P6SM BKN030
     FM240200 10008KT P6SM OVC040
     FM240400 13010KT P6SM OVC050
     FM240800 17012KT P6SM OVC050=

USA.gov is the U.S. government's official web portal to all federal, state and local government web resources and services.